sensor_id;sensor_type;location;lat;lon;timestamp;P1;durP1;ratioP1;P2;durP2;ratioP2
8640;SDS011;4358;42.100;25.222;2022-09-30T00:01:25;1.63;;;1.30;;
8640;SDS011;4358;42.100;25.222;2022-09-30T00:03:53;2.10;;;1.30;;
8640;SDS011;4358;42.100;25.222;2022-09-30T00:06:22;1.63;;;1.40;;
8640;SDS011;4358;42.100;25.222;2022-09-30T00:08:51;1.93;;;1.50;;
8640;SDS011;4358;42.100;25.222;2022-09-30T00:11:19;1.70;;;1.10;;
8640;SDS011;4358;42.100;25.222;2022-09-30T00:13:48;2.53;;;1.37;;
8640;SDS011;4358;42.100;25.222;2022-09-30T00:16:16;2.13;;;1.30;;
8640;SDS011;4358;42.100;25.222;2022-09-30T00:18:45;2.00;;;1.57;;
8640;SDS011;4358;42.100;25.222;2022-09-30T00:21:12;1.70;;;1.30;;
8640;SDS011;4358;42.100;25.222;2022-09-30T00:23:41;1.93;;;1.57;;
8640;SDS011;4358;42.100;25.222;2022-09-30T00:26:11;1.30;;;1.20;;
8640;SDS011;4358;42.100;25.222;2022-09-30T00:28:40;3.47;;;1.40;;
8640;SDS011;4358;42.100;25.222;2022-09-30T00:31:10;1.70;;;1.40;;
8640;SDS011;4358;42.100;25.222;2022-09-30T00:33:39;5.33;;;3.87;;
8640;SDS011;4358;42.100;25.222;2022-09-30T00:36:06;4.60;;;2.73;;
8640;SDS011;4358;42.100;25.222;2022-09-30T00:38:33;2.20;;;1.67;;
8640;SDS011;4358;42.100;25.222;2022-09-30T00:41:00;1.43;;;1.33;;
8640;SDS011;4358;42.100;25.222;2022-09-30T00:43:39;1.50;;;1.30;;
8640;SDS011;4358;42.100;25.222;2022-09-30T00:46:10;1.70;;;1.47;;
8640;SDS011;4358;42.100;25.222;2022-09-30T00:48:44;1.73;;;1.30;;
8640;SDS011;4358;42.100;25.222;2022-09-30T00:51:18;1.67;;;1.20;;
8640;SDS011;4358;42.100;25.222;2022-09-30T00:53:50;1.70;;;1.40;;
8640;SDS011;4358;42.100;25.222;2022-09-30T00:56:20;1.60;;;1.40;;
8640;SDS011;4358;42.100;25.222;2022-09-30T00:58:52;1.40;;;1.30;;
8640;SDS011;4358;42.100;25.222;2022-09-30T01:01:20;2.00;;;1.40;;
8640;SDS011;4358;42.100;25.222;2022-09-30T01:03:49;1.23;;;1.13;;
8640;SDS011;4358;42.100;25.222;2022-09-30T01:06:20;1.20;;;1.10;;
8640;SDS011;4358;42.100;25.222;2022-09-30T01:08:49;1.57;;;1.20;;
8640;SDS011;4358;42.100;25.222;2022-09-30T01:11:15;1.50;;;1.40;;
8640;SDS011;4358;42.100;25.222;2022-09-30T01:13:43;1.77;;;1.27;;
8640;SDS011;4358;42.100;25.222;2022-09-30T01:16:27;1.50;;;1.37;;
8640;SDS011;4358;42.100;25.222;2022-09-30T01:19:12;1.60;;;1.30;;
8640;SDS011;4358;42.100;25.222;2022-09-30T01:21:54;2.00;;;1.80;;
8640;SDS011;4358;42.100;25.222;2022-09-30T01:24:36;2.70;;;2.13;;
8640;SDS011;4358;42.100;25.222;2022-09-30T01:30:34;2.53;;;1.70;;
8640;SDS011;4358;42.100;25.222;2022-09-30T01:33:16;3.07;;;2.73;;
8640;SDS011;4358;42.100;25.222;2022-09-30T01:36:00;2.53;;;2.30;;
8640;SDS011;4358;42.100;25.222;2022-09-30T01:38:38;5.53;;;3.83;;
8640;SDS011;4358;42.100;25.222;2022-09-30T01:41:16;5.83;;;3.97;;
8640;SDS011;4358;42.100;25.222;2022-09-30T01:43:53;4.47;;;2.80;;
8640;SDS011;4358;42.100;25.222;2022-09-30T01:46:29;2.53;;;2.20;;
8640;SDS011;4358;42.100;25.222;2022-09-30T01:49:03;3.37;;;2.50;;
8640;SDS011;4358;42.100;25.222;2022-09-30T01:51:38;4.63;;;2.20;;
8640;SDS011;4358;42.100;25.222;2022-09-30T01:54:12;4.27;;;2.50;;
8640;SDS011;4358;42.100;25.222;2022-09-30T01:56:44;3.23;;;2.73;;
8640;SDS011;4358;42.100;25.222;2022-09-30T01:59:14;3.17;;;2.60;;
8640;SDS011;4358;42.100;25.222;2022-09-30T02:01:50;2.97;;;2.53;;
8640;SDS011;4358;42.100;25.222;2022-09-30T02:04:22;3.00;;;2.30;;
8640;SDS011;4358;42.100;25.222;2022-09-30T02:06:53;3.43;;;2.47;;
8640;SDS011;4358;42.100;25.222;2022-09-30T02:09:23;2.37;;;1.80;;
8640;SDS011;4358;42.100;25.222;2022-09-30T02:11:54;3.70;;;2.20;;
8640;SDS011;4358;42.100;25.222;2022-09-30T02:14:25;2.60;;;1.90;;
8640;SDS011;4358;42.100;25.222;2022-09-30T02:16:59;3.03;;;2.43;;
8640;SDS011;4358;42.100;25.222;2022-09-30T02:19:32;8.00;;;5.17;;
8640;SDS011;4358;42.100;25.222;2022-09-30T02:22:05;6.73;;;5.40;;
8640;SDS011;4358;42.100;25.222;2022-09-30T02:24:36;5.40;;;4.50;;
8640;SDS011;4358;42.100;25.222;2022-09-30T02:27:04;7.47;;;4.87;;
8640;SDS011;4358;42.100;25.222;2022-09-30T02:29:35;4.50;;;3.90;;
8640;SDS011;4358;42.100;25.222;2022-09-30T02:32:10;5.00;;;2.60;;
8640;SDS011;4358;42.100;25.222;2022-09-30T02:34:43;3.47;;;2.17;;
8640;SDS011;4358;42.100;25.222;2022-09-30T02:37:15;2.37;;;1.90;;
8640;SDS011;4358;42.100;25.222;2022-09-30T02:39:46;8.03;;;1.60;;
8640;SDS011;4358;42.100;25.222;2022-09-30T02:42:19;2.13;;;1.60;;
8640;SDS011;4358;42.100;25.222;2022-09-30T02:44:51;1.93;;;1.70;;
8640;SDS011;4358;42.100;25.222;2022-09-30T02:47:24;2.77;;;1.80;;
8640;SDS011;4358;42.100;25.222;2022-09-30T02:49:55;1.80;;;1.57;;
8640;SDS011;4358;42.100;25.222;2022-09-30T02:52:28;2.57;;;2.23;;
8640;SDS011;4358;42.100;25.222;2022-09-30T02:55:09;2.77;;;2.33;;
8640;SDS011;4358;42.100;25.222;2022-09-30T02:57:46;2.73;;;2.00;;
8640;SDS011;4358;42.100;25.222;2022-09-30T03:00:22;2.20;;;2.00;;
8640;SDS011;4358;42.100;25.222;2022-09-30T03:02:51;2.37;;;2.00;;
8640;SDS011;4358;42.100;25.222;2022-09-30T03:05:23;3.00;;;2.30;;
8640;SDS011;4358;42.100;25.222;2022-09-30T03:07:50;4.33;;;2.83;;
8640;SDS011;4358;42.100;25.222;2022-09-30T03:10:17;2.40;;;2.20;;
8640;SDS011;4358;42.100;25.222;2022-09-30T03:12:49;3.47;;;1.90;;
8640;SDS011;4358;42.100;25.222;2022-09-30T03:15:34;9.23;;;2.43;;
8640;SDS011;4358;42.100;25.222;2022-09-30T03:18:16;3.47;;;2.30;;
8640;SDS011;4358;42.100;25.222;2022-09-30T03:20:57;2.30;;;2.10;;
8640;SDS011;4358;42.100;25.222;2022-09-30T03:23:40;2.50;;;1.73;;
8640;SDS011;4358;42.100;25.222;2022-09-30T03:26:21;2.40;;;2.00;;
8640;SDS011;4358;42.100;25.222;2022-09-30T03:29:04;2.37;;;1.80;;
8640;SDS011;4358;42.100;25.222;2022-09-30T03:31:40;2.30;;;2.10;;
8640;SDS011;4358;42.100;25.222;2022-09-30T03:34:18;2.47;;;2.07;;
8640;SDS011;4358;42.100;25.222;2022-09-30T03:36:52;2.47;;;2.00;;
8640;SDS011;4358;42.100;25.222;2022-09-30T03:39:28;2.77;;;2.00;;
8640;SDS011;4358;42.100;25.222;2022-09-30T03:42:08;2.90;;;2.00;;
8640;SDS011;4358;42.100;25.222;2022-09-30T03:44:42;2.53;;;2.00;;
8640;SDS011;4358;42.100;25.222;2022-09-30T03:47:14;3.63;;;1.80;;
8640;SDS011;4358;42.100;25.222;2022-09-30T03:49:46;2.87;;;2.00;;
8640;SDS011;4358;42.100;25.222;2022-09-30T03:52:16;3.07;;;2.00;;
8640;SDS011;4358;42.100;25.222;2022-09-30T03:54:47;2.77;;;2.00;;
8640;SDS011;4358;42.100;25.222;2022-09-30T03:57:17;3.57;;;2.10;;
8640;SDS011;4358;42.100;25.222;2022-09-30T03:59:44;2.17;;;1.97;;
8640;SDS011;4358;42.100;25.222;2022-09-30T04:02:11;3.00;;;2.00;;
8640;SDS011;4358;42.100;25.222;2022-09-30T04:04:38;2.27;;;1.90;;
8640;SDS011;4358;42.100;25.222;2022-09-30T04:07:07;2.13;;;1.80;;
8640;SDS011;4358;42.100;25.222;2022-09-30T04:09:35;3.00;;;1.87;;
8640;SDS011;4358;42.100;25.222;2022-09-30T04:12:02;3.20;;;2.07;;
8640;SDS011;4358;42.100;25.222;2022-09-30T04:14:29;1.70;;;1.57;;
8640;SDS011;4358;42.100;25.222;2022-09-30T04:16:56;2.40;;;1.80;;
8640;SDS011;4358;42.100;25.222;2022-09-30T04:19:23;2.13;;;1.93;;
8640;SDS011;4358;42.100;25.222;2022-09-30T04:21:50;2.43;;;1.77;;
8640;SDS011;4358;42.100;25.222;2022-09-30T04:24:19;2.47;;;2.00;;
8640;SDS011;4358;42.100;25.222;2022-09-30T04:26:46;2.67;;;1.77;;
8640;SDS011;4358;42.100;25.222;2022-09-30T04:29:13;2.13;;;1.83;;
8640;SDS011;4358;42.100;25.222;2022-09-30T04:31:39;3.83;;;1.83;;
8640;SDS011;4358;42.100;25.222;2022-09-30T04:34:07;2.63;;;1.70;;
8640;SDS011;4358;42.100;25.222;2022-09-30T04:36:34;3.37;;;1.90;;
8640;SDS011;4358;42.100;25.222;2022-09-30T04:39:01;2.83;;;1.80;;
8640;SDS011;4358;42.100;25.222;2022-09-30T04:41:30;1.97;;;1.50;;
8640;SDS011;4358;42.100;25.222;2022-09-30T04:43:58;2.80;;;1.60;;
8640;SDS011;4358;42.100;25.222;2022-09-30T04:46:30;2.17;;;1.53;;
8640;SDS011;4358;42.100;25.222;2022-09-30T04:48:58;4.13;;;1.60;;
8640;SDS011;4358;42.100;25.222;2022-09-30T04:51:25;2.37;;;1.90;;
8640;SDS011;4358;42.100;25.222;2022-09-30T04:53:52;1.77;;;1.50;;
8640;SDS011;4358;42.100;25.222;2022-09-30T04:56:19;2.50;;;1.93;;
8640;SDS011;4358;42.100;25.222;2022-09-30T04:58:48;1.97;;;1.63;;
8640;SDS011;4358;42.100;25.222;2022-09-30T05:01:15;3.10;;;1.90;;
8640;SDS011;4358;42.100;25.222;2022-09-30T05:03:43;2.83;;;1.70;;
8640;SDS011;4358;42.100;25.222;2022-09-30T05:06:11;4.60;;;2.10;;
8640;SDS011;4358;42.100;25.222;2022-09-30T05:08:39;9.13;;;2.20;;
8640;SDS011;4358;42.100;25.222;2022-09-30T05:11:08;3.73;;;2.90;;
8640;SDS011;4358;42.100;25.222;2022-09-30T05:13:39;4.00;;;2.67;;
8640;SDS011;4358;42.100;25.222;2022-09-30T05:16:07;2.97;;;2.40;;
8640;SDS011;4358;42.100;25.222;2022-09-30T05:18:35;2.60;;;2.03;;
8640;SDS011;4358;42.100;25.222;2022-09-30T05:21:02;6.53;;;4.77;;
8640;SDS011;4358;42.100;25.222;2022-09-30T05:23:30;6.87;;;3.63;;
8640;SDS011;4358;42.100;25.222;2022-09-30T05:25:57;4.10;;;2.77;;
8640;SDS011;4358;42.100;25.222;2022-09-30T05:28:25;4.90;;;3.40;;
8640;SDS011;4358;42.100;25.222;2022-09-30T05:30:54;5.67;;;3.80;;
8640;SDS011;4358;42.100;25.222;2022-09-30T05:33:25;6.77;;;5.33;;
8640;SDS011;4358;42.100;25.222;2022-09-30T05:35:52;5.80;;;4.47;;
8640;SDS011;4358;42.100;25.222;2022-09-30T05:38:20;6.00;;;3.90;;
8640;SDS011;4358;42.100;25.222;2022-09-30T05:40:47;4.67;;;3.77;;
8640;SDS011;4358;42.100;25.222;2022-09-30T05:43:14;7.00;;;4.10;;
8640;SDS011;4358;42.100;25.222;2022-09-30T05:45:41;6.70;;;3.97;;
8640;SDS011;4358;42.100;25.222;2022-09-30T05:48:07;3.13;;;2.80;;
8640;SDS011;4358;42.100;25.222;2022-09-30T05:50:35;3.43;;;2.30;;
8640;SDS011;4358;42.100;25.222;2022-09-30T05:53:02;1.83;;;1.70;;
8640;SDS011;4358;42.100;25.222;2022-09-30T05:55:29;1.80;;;1.70;;
8640;SDS011;4358;42.100;25.222;2022-09-30T05:57:56;4.93;;;1.80;;
8640;SDS011;4358;42.100;25.222;2022-09-30T06:00:23;1.90;;;1.50;;
8640;SDS011;4358;42.100;25.222;2022-09-30T06:02:50;3.17;;;2.10;;
8640;SDS011;4358;42.100;25.222;2022-09-30T06:05:17;3.03;;;2.63;;
8640;SDS011;4358;42.100;25.222;2022-09-30T06:07:47;3.90;;;3.20;;
8640;SDS011;4358;42.100;25.222;2022-09-30T06:10:14;5.10;;;3.73;;
8640;SDS011;4358;42.100;25.222;2022-09-30T06:12:41;5.60;;;3.80;;
8640;SDS011;4358;42.100;25.222;2022-09-30T06:15:08;4.67;;;3.90;;
8640;SDS011;4358;42.100;25.222;2022-09-30T06:17:35;4.13;;;2.60;;
8640;SDS011;4358;42.100;25.222;2022-09-30T06:20:03;2.80;;;1.90;;
8640;SDS011;4358;42.100;25.222;2022-09-30T06:22:31;2.30;;;1.83;;
8640;SDS011;4358;42.100;25.222;2022-09-30T06:25:02;3.27;;;2.10;;
8640;SDS011;4358;42.100;25.222;2022-09-30T06:27:30;2.30;;;1.70;;
8640;SDS011;4358;42.100;25.222;2022-09-30T06:29:58;3.17;;;2.20;;
8640;SDS011;4358;42.100;25.222;2022-09-30T06:32:25;2.60;;;2.10;;
8640;SDS011;4358;42.100;25.222;2022-09-30T06:34:52;4.47;;;3.70;;
8640;SDS011;4358;42.100;25.222;2022-09-30T06:37:20;8.67;;;2.53;;
8640;SDS011;4358;42.100;25.222;2022-09-30T06:39:47;3.53;;;2.20;;
8640;SDS011;4358;42.100;25.222;2022-09-30T06:42:15;3.57;;;1.97;;
8640;SDS011;4358;42.100;25.222;2022-09-30T06:44:43;1.77;;;1.60;;
8640;SDS011;4358;42.100;25.222;2022-09-30T06:47:11;2.30;;;1.83;;
8640;SDS011;4358;42.100;25.222;2022-09-30T06:49:38;5.53;;;1.93;;
8640;SDS011;4358;42.100;25.222;2022-09-30T06:52:07;2.00;;;1.80;;
8640;SDS011;4358;42.100;25.222;2022-09-30T06:54:37;1.93;;;1.73;;
8640;SDS011;4358;42.100;25.222;2022-09-30T06:57:04;2.40;;;2.20;;
8640;SDS011;4358;42.100;25.222;2022-09-30T06:59:32;2.30;;;2.10;;
8640;SDS011;4358;42.100;25.222;2022-09-30T07:01:59;2.23;;;1.80;;
8640;SDS011;4358;42.100;25.222;2022-09-30T07:04:25;2.67;;;2.17;;
8640;SDS011;4358;42.100;25.222;2022-09-30T07:06:52;2.13;;;1.93;;
8640;SDS011;4358;42.100;25.222;2022-09-30T07:09:19;3.30;;;2.30;;
8640;SDS011;4358;42.100;25.222;2022-09-30T07:11:46;2.90;;;1.70;;
8640;SDS011;4358;42.100;25.222;2022-09-30T07:14:13;1.63;;;1.53;;
8640;SDS011;4358;42.100;25.222;2022-09-30T07:16:41;5.40;;;1.90;;
8640;SDS011;4358;42.100;25.222;2022-09-30T07:19:09;1.77;;;1.67;;
8640;SDS011;4358;42.100;25.222;2022-09-30T07:21:37;2.50;;;1.87;;
8640;SDS011;4358;42.100;25.222;2022-09-30T07:24:03;2.30;;;1.87;;
8640;SDS011;4358;42.100;25.222;2022-09-30T07:26:30;1.43;;;1.33;;
8640;SDS011;4358;42.100;25.222;2022-09-30T07:28:57;1.97;;;1.67;;
8640;SDS011;4358;42.100;25.222;2022-09-30T07:31:25;1.60;;;1.50;;
8640;SDS011;4358;42.100;25.222;2022-09-30T07:33:54;1.67;;;1.57;;
8640;SDS011;4358;42.100;25.222;2022-09-30T07:36:22;2.73;;;1.83;;
8640;SDS011;4358;42.100;25.222;2022-09-30T07:38:54;1.83;;;1.70;;
8640;SDS011;4358;42.100;25.222;2022-09-30T07:41:22;2.23;;;1.90;;
8640;SDS011;4358;42.100;25.222;2022-09-30T07:43:53;2.60;;;2.40;;
8640;SDS011;4358;42.100;25.222;2022-09-30T07:46:23;2.63;;;1.90;;
8640;SDS011;4358;42.100;25.222;2022-09-30T07:48:53;3.00;;;2.20;;
8640;SDS011;4358;42.100;25.222;2022-09-30T07:51:25;3.10;;;2.30;;
8640;SDS011;4358;42.100;25.222;2022-09-30T07:53:56;2.30;;;2.03;;
8640;SDS011;4358;42.100;25.222;2022-09-30T07:56:25;3.13;;;2.00;;
8640;SDS011;4358;42.100;25.222;2022-09-30T07:58:53;2.03;;;1.73;;
8640;SDS011;4358;42.100;25.222;2022-09-30T08:01:20;2.43;;;1.90;;
8640;SDS011;4358;42.100;25.222;2022-09-30T08:03:50;2.03;;;1.83;;
8640;SDS011;4358;42.100;25.222;2022-09-30T08:06:20;2.30;;;2.10;;
8640;SDS011;4358;42.100;25.222;2022-09-30T08:08:49;2.23;;;2.00;;
8640;SDS011;4358;42.100;25.222;2022-09-30T08:11:17;2.53;;;1.70;;
8640;SDS011;4358;42.100;25.222;2022-09-30T08:13:44;2.77;;;2.17;;
8640;SDS011;4358;42.100;25.222;2022-09-30T08:16:15;2.73;;;1.87;;
8640;SDS011;4358;42.100;25.222;2022-09-30T08:18:41;2.33;;;2.13;;
8640;SDS011;4358;42.100;25.222;2022-09-30T08:21:08;2.67;;;2.20;;
8640;SDS011;4358;42.100;25.222;2022-09-30T08:23:36;5.53;;;1.90;;
8640;SDS011;4358;42.100;25.222;2022-09-30T08:26:04;1.70;;;1.60;;
8640;SDS011;4358;42.100;25.222;2022-09-30T08:28:32;1.87;;;1.77;;
8640;SDS011;4358;42.100;25.222;2022-09-30T08:31:03;2.50;;;1.90;;
8640;SDS011;4358;42.100;25.222;2022-09-30T08:33:31;1.93;;;1.70;;
8640;SDS011;4358;42.100;25.222;2022-09-30T08:36:00;1.80;;;1.70;;
8640;SDS011;4358;42.100;25.222;2022-09-30T08:38:29;2.50;;;1.60;;
8640;SDS011;4358;42.100;25.222;2022-09-30T08:40:59;2.30;;;2.10;;
8640;SDS011;4358;42.100;25.222;2022-09-30T08:43:37;1.83;;;1.70;;
8640;SDS011;4358;42.100;25.222;2022-09-30T08:46:18;1.90;;;1.70;;
8640;SDS011;4358;42.100;25.222;2022-09-30T08:48:55;1.80;;;1.70;;
8640;SDS011;4358;42.100;25.222;2022-09-30T08:51:29;1.90;;;1.70;;
8640;SDS011;4358;42.100;25.222;2022-09-30T08:53:59;1.80;;;1.60;;
8640;SDS011;4358;42.100;25.222;2022-09-30T08:56:32;2.33;;;2.13;;
8640;SDS011;4358;42.100;25.222;2022-09-30T08:59:00;2.80;;;2.00;;
8640;SDS011;4358;42.100;25.222;2022-09-30T09:01:32;2.13;;;1.87;;
8640;SDS011;4358;42.100;25.222;2022-09-30T09:04:02;2.77;;;2.50;;
8640;SDS011;4358;42.100;25.222;2022-09-30T09:06:32;2.97;;;1.90;;
8640;SDS011;4358;42.100;25.222;2022-09-30T09:09:13;1.97;;;1.87;;
8640;SDS011;4358;42.100;25.222;2022-09-30T09:12:04;2.17;;;1.90;;
8640;SDS011;4358;42.100;25.222;2022-09-30T09:14:43;2.33;;;2.13;;
8640;SDS011;4358;42.100;25.222;2022-09-30T09:17:24;2.27;;;2.07;;
8640;SDS011;4358;42.100;25.222;2022-09-30T09:20:00;2.00;;;1.80;;
8640;SDS011;4358;42.100;25.222;2022-09-30T09:22:29;2.20;;;1.90;;
8640;SDS011;4358;42.100;25.222;2022-09-30T09:24:57;3.10;;;1.93;;
8640;SDS011;4358;42.100;25.222;2022-09-30T09:27:29;2.30;;;1.67;;
8640;SDS011;4358;42.100;25.222;2022-09-30T09:30:07;2.43;;;2.10;;
8640;SDS011;4358;42.100;25.222;2022-09-30T09:32:36;1.80;;;1.70;;
8640;SDS011;4358;42.100;25.222;2022-09-30T09:35:08;1.73;;;1.63;;
8640;SDS011;4358;42.100;25.222;2022-09-30T09:37:42;2.03;;;1.83;;
8640;SDS011;4358;42.100;25.222;2022-09-30T09:40:33;2.47;;;2.07;;
8640;SDS011;4358;42.100;25.222;2022-09-30T09:43:14;2.37;;;2.17;;
8640;SDS011;4358;42.100;25.222;2022-09-30T09:45:50;2.10;;;1.90;;
8640;SDS011;4358;42.100;25.222;2022-09-30T09:48:24;3.03;;;2.60;;
8640;SDS011;4358;42.100;25.222;2022-09-30T09:50:54;2.77;;;2.30;;
8640;SDS011;4358;42.100;25.222;2022-09-30T09:53:39;2.60;;;2.27;;
8640;SDS011;4358;42.100;25.222;2022-09-30T09:56:11;2.43;;;2.10;;
8640;SDS011;4358;42.100;25.222;2022-09-30T10:01:38;2.10;;;1.90;;
8640;SDS011;4358;42.100;25.222;2022-09-30T10:04:08;2.77;;;2.40;;
8640;SDS011;4358;42.100;25.222;2022-09-30T10:06:47;2.33;;;2.03;;
8640;SDS011;4358;42.100;25.222;2022-09-30T10:09:23;2.33;;;2.07;;
8640;SDS011;4358;42.100;25.222;2022-09-30T10:11:59;1.93;;;1.80;;
8640;SDS011;4358;42.100;25.222;2022-09-30T10:14:50;2.67;;;2.10;;
8640;SDS011;4358;42.100;25.222;2022-09-30T10:17:21;2.53;;;2.10;;
8640;SDS011;4358;42.100;25.222;2022-09-30T10:19:54;2.70;;;2.50;;
8640;SDS011;4358;42.100;25.222;2022-09-30T10:22:26;2.60;;;2.07;;
8640;SDS011;4358;42.100;25.222;2022-09-30T10:25:08;2.30;;;2.00;;
8640;SDS011;4358;42.100;25.222;2022-09-30T10:27:46;3.57;;;2.00;;
8640;SDS011;4358;42.100;25.222;2022-09-30T10:33:18;4.20;;;2.70;;
8640;SDS011;4358;42.100;25.222;2022-09-30T10:35:52;2.57;;;2.20;;
8640;SDS011;4358;42.100;25.222;2022-09-30T10:38:22;5.33;;;3.60;;
8640;SDS011;4358;42.100;25.222;2022-09-30T10:40:53;4.37;;;2.10;;
8640;SDS011;4358;42.100;25.222;2022-09-30T10:43:22;2.90;;;2.03;;
8640;SDS011;4358;42.100;25.222;2022-09-30T10:45:53;2.40;;;2.20;;
8640;SDS011;4358;42.100;25.222;2022-09-30T10:48:23;3.60;;;2.10;;
8640;SDS011;4358;42.100;25.222;2022-09-30T10:50:53;2.17;;;1.97;;
8640;SDS011;4358;42.100;25.222;2022-09-30T10:53:22;2.00;;;1.80;;
8640;SDS011;4358;42.100;25.222;2022-09-30T10:55:52;2.17;;;1.97;;
8640;SDS011;4358;42.100;25.222;2022-09-30T10:58:21;2.30;;;2.10;;
8640;SDS011;4358;42.100;25.222;2022-09-30T11:00:56;4.60;;;2.00;;
8640;SDS011;4358;42.100;25.222;2022-09-30T11:03:31;2.00;;;1.80;;
8640;SDS011;4358;42.100;25.222;2022-09-30T11:06:03;1.93;;;1.80;;
8640;SDS011;4358;42.100;25.222;2022-09-30T11:08:35;1.80;;;1.70;;
8640;SDS011;4358;42.100;25.222;2022-09-30T11:11:10;2.47;;;2.20;;
8640;SDS011;4358;42.100;25.222;2022-09-30T11:13:41;2.30;;;2.10;;
8640;SDS011;4358;42.100;25.222;2022-09-30T11:16:17;2.10;;;1.90;;
8640;SDS011;4358;42.100;25.222;2022-09-30T11:18:52;2.07;;;1.87;;
8640;SDS011;4358;42.100;25.222;2022-09-30T11:21:26;3.53;;;1.97;;
8640;SDS011;4358;42.100;25.222;2022-09-30T11:23:56;1.70;;;1.60;;
8640;SDS011;4358;42.100;25.222;2022-09-30T11:26:31;2.50;;;1.80;;
8640;SDS011;4358;42.100;25.222;2022-09-30T11:29:14;1.80;;;1.70;;
8640;SDS011;4358;42.100;25.222;2022-09-30T11:32:05;2.00;;;1.80;;
8640;SDS011;4358;42.100;25.222;2022-09-30T11:34:42;2.77;;;2.03;;
8640;SDS011;4358;42.100;25.222;2022-09-30T11:37:22;3.50;;;1.77;;
8640;SDS011;4358;42.100;25.222;2022-09-30T11:40:01;2.57;;;1.90;;
8640;SDS011;4358;42.100;25.222;2022-09-30T11:42:42;3.50;;;1.85;;
8640;SDS011;4358;42.100;25.222;2022-09-30T11:45:18;2.97;;;1.90;;
8640;SDS011;4358;42.100;25.222;2022-09-30T11:48:00;1.87;;;1.67;;
8640;SDS011;4358;42.100;25.222;2022-09-30T11:50:51;1.50;;;1.40;;
8640;SDS011;4358;42.100;25.222;2022-09-30T11:53:28;2.53;;;2.33;;
8640;SDS011;4358;42.100;25.222;2022-09-30T11:56:16;9.13;;;7.23;;
8640;SDS011;4358;42.100;25.222;2022-09-30T11:58:52;1.97;;;1.77;;
8640;SDS011;4358;42.100;25.222;2022-09-30T12:01:24;2.00;;;1.60;;
8640;SDS011;4358;42.100;25.222;2022-09-30T12:03:59;1.77;;;1.50;;
8640;SDS011;4358;42.100;25.222;2022-09-30T12:06:31;1.47;;;1.37;;
8640;SDS011;4358;42.100;25.222;2022-09-30T12:09:02;1.43;;;1.33;;
8640;SDS011;4358;42.100;25.222;2022-09-30T12:11:36;1.20;;;1.10;;
8640;SDS011;4358;42.100;25.222;2022-09-30T12:14:10;1.37;;;1.27;;
8640;SDS011;4358;42.100;25.222;2022-09-30T12:16:44;2.53;;;1.13;;
8640;SDS011;4358;42.100;25.222;2022-09-30T12:19:14;1.37;;;1.27;;
8640;SDS011;4358;42.100;25.222;2022-09-30T12:21:46;1.67;;;1.30;;
8640;SDS011;4358;42.100;25.222;2022-09-30T12:24:20;2.10;;;1.50;;
8640;SDS011;4358;42.100;25.222;2022-09-30T12:26:52;1.60;;;1.50;;
8640;SDS011;4358;42.100;25.222;2022-09-30T12:29:20;1.60;;;1.50;;
8640;SDS011;4358;42.100;25.222;2022-09-30T12:32:12;1.65;;;1.55;;
8640;SDS011;4358;42.100;25.222;2022-09-30T12:34:57;1.77;;;1.67;;
8640;SDS011;4358;42.100;25.222;2022-09-30T12:37:47;2.00;;;1.40;;
8640;SDS011;4358;42.100;25.222;2022-09-30T12:43:33;2.83;;;1.43;;
8640;SDS011;4358;42.100;25.222;2022-09-30T12:46:20;4.53;;;3.35;;
8640;SDS011;4358;42.100;25.222;2022-09-30T12:48:54;1.33;;;1.23;;
8640;SDS011;4358;42.100;25.222;2022-09-30T12:51:28;1.75;;;1.63;;
8640;SDS011;4358;42.100;25.222;2022-09-30T12:53:58;1.40;;;1.30;;
8640;SDS011;4358;42.100;25.222;2022-09-30T12:56:29;4.18;;;3.05;;
8640;SDS011;4358;42.100;25.222;2022-09-30T12:58:58;1.70;;;1.60;;
8640;SDS011;4358;42.100;25.222;2022-09-30T13:01:26;1.83;;;1.73;;
8640;SDS011;4358;42.100;25.222;2022-09-30T13:04:14;1.70;;;1.60;;
8640;SDS011;4358;42.100;25.222;2022-09-30T13:13:07;2.53;;;1.77;;
8640;SDS011;4358;42.100;25.222;2022-09-30T13:15:48;1.70;;;1.58;;
8640;SDS011;4358;42.100;25.222;2022-09-30T13:21:20;1.60;;;1.50;;
8640;SDS011;4358;42.100;25.222;2022-09-30T13:23:54;2.75;;;1.73;;
8640;SDS011;4358;42.100;25.222;2022-09-30T13:32:28;1.35;;;1.25;;
8640;SDS011;4358;42.100;25.222;2022-09-30T13:34:57;1.88;;;1.60;;
8640;SDS011;4358;42.100;25.222;2022-09-30T13:37:30;2.22;;;1.67;;
8640;SDS011;4358;42.100;25.222;2022-09-30T13:40:03;1.73;;;1.50;;
8640;SDS011;4358;42.100;25.222;2022-09-30T13:42:39;1.60;;;1.50;;
8640;SDS011;4358;42.100;25.222;2022-09-30T13:45:14;1.63;;;1.53;;
8640;SDS011;4358;42.100;25.222;2022-09-30T13:47:46;1.50;;;1.40;;
8640;SDS011;4358;42.100;25.222;2022-09-30T13:50:17;1.85;;;1.30;;
8640;SDS011;4358;42.100;25.222;2022-09-30T13:52:48;1.87;;;1.63;;
8640;SDS011;4358;42.100;25.222;2022-09-30T13:55:21;1.83;;;1.50;;
8640;SDS011;4358;42.100;25.222;2022-09-30T13:57:54;1.77;;;1.27;;
8640;SDS011;4358;42.100;25.222;2022-09-30T14:00:35;2.17;;;1.70;;
8640;SDS011;4358;42.100;25.222;2022-09-30T14:03:20;2.37;;;1.60;;
8640;SDS011;4358;42.100;25.222;2022-09-30T14:06:10;4.17;;;1.60;;
8640;SDS011;4358;42.100;25.222;2022-09-30T14:08:53;2.17;;;1.90;;
8640;SDS011;4358;42.100;25.222;2022-09-30T14:11:43;2.80;;;2.07;;
8640;SDS011;4358;42.100;25.222;2022-09-30T14:17:40;1.60;;;1.50;;
8640;SDS011;4358;42.100;25.222;2022-09-30T14:20:20;2.13;;;1.90;;
8640;SDS011;4358;42.100;25.222;2022-09-30T14:22:57;5.63;;;3.97;;
8640;SDS011;4358;42.100;25.222;2022-09-30T14:25:24;5.27;;;3.80;;
8640;SDS011;4358;42.100;25.222;2022-09-30T14:27:55;6.13;;;4.30;;
8640;SDS011;4358;42.100;25.222;2022-09-30T14:30:27;4.57;;;2.10;;
8640;SDS011;4358;42.100;25.222;2022-09-30T14:33:00;1.93;;;1.73;;
8640;SDS011;4358;42.100;25.222;2022-09-30T14:35:31;1.83;;;1.50;;
8640;SDS011;4358;42.100;25.222;2022-09-30T14:38:00;1.27;;;1.17;;
8640;SDS011;4358;42.100;25.222;2022-09-30T14:40:29;2.03;;;1.70;;
8640;SDS011;4358;42.100;25.222;2022-09-30T14:43:00;2.10;;;1.70;;
8640;SDS011;4358;42.100;25.222;2022-09-30T14:45:30;2.27;;;1.87;;
8640;SDS011;4358;42.100;25.222;2022-09-30T14:48:00;2.67;;;1.83;;
8640;SDS011;4358;42.100;25.222;2022-09-30T14:50:34;1.47;;;1.33;;
8640;SDS011;4358;42.100;25.222;2022-09-30T14:53:03;3.73;;;1.43;;
8640;SDS011;4358;42.100;25.222;2022-09-30T14:55:30;1.60;;;1.50;;
8640;SDS011;4358;42.100;25.222;2022-09-30T15:00:48;3.63;;;1.77;;
8640;SDS011;4358;42.100;25.222;2022-09-30T15:03:22;2.60;;;1.40;;
8640;SDS011;4358;42.100;25.222;2022-09-30T15:05:49;1.83;;;1.60;;
8640;SDS011;4358;42.100;25.222;2022-09-30T15:08:17;3.03;;;1.80;;
8640;SDS011;4358;42.100;25.222;2022-09-30T15:10:45;2.70;;;1.90;;
8640;SDS011;4358;42.100;25.222;2022-09-30T15:13:13;3.47;;;1.50;;
8640;SDS011;4358;42.100;25.222;2022-09-30T15:15:44;3.97;;;1.70;;
8640;SDS011;4358;42.100;25.222;2022-09-30T15:18:28;1.50;;;1.40;;
8640;SDS011;4358;42.100;25.222;2022-09-30T15:20:57;4.07;;;2.07;;
8640;SDS011;4358;42.100;25.222;2022-09-30T15:23:29;2.00;;;1.80;;
8640;SDS011;4358;42.100;25.222;2022-09-30T15:25:57;2.67;;;1.77;;
8640;SDS011;4358;42.100;25.222;2022-09-30T15:28:25;6.17;;;1.97;;
8640;SDS011;4358;42.100;25.222;2022-09-30T15:30:55;2.97;;;1.80;;
8640;SDS011;4358;42.100;25.222;2022-09-30T15:33:24;3.53;;;2.00;;
8640;SDS011;4358;42.100;25.222;2022-09-30T15:36:03;4.50;;;1.83;;
8640;SDS011;4358;42.100;25.222;2022-09-30T15:38:32;3.83;;;2.53;;
8640;SDS011;4358;42.100;25.222;2022-09-30T15:41:03;3.87;;;2.57;;
8640;SDS011;4358;42.100;25.222;2022-09-30T15:43:33;2.83;;;2.27;;
8640;SDS011;4358;42.100;25.222;2022-09-30T15:49:04;4.93;;;2.87;;
8640;SDS011;4358;42.100;25.222;2022-09-30T15:51:53;2.53;;;1.87;;
8640;SDS011;4358;42.100;25.222;2022-09-30T15:54:27;2.10;;;1.90;;
8640;SDS011;4358;42.100;25.222;2022-09-30T15:56:59;4.10;;;2.33;;
8640;SDS011;4358;42.100;25.222;2022-09-30T16:02:25;6.50;;;2.43;;
8640;SDS011;4358;42.100;25.222;2022-09-30T16:04:53;3.57;;;2.20;;
8640;SDS011;4358;42.100;25.222;2022-09-30T16:07:21;3.80;;;2.23;;
8640;SDS011;4358;42.100;25.222;2022-09-30T16:09:50;2.87;;;2.30;;